Time;durP1;ratioP1;P1;durP2;ratioP2;P2;SDS_P1;SDS_P2;PMS_P1;PMS_P2;Temp;Humidity;BMP_temperature;BMP_pressure;BME280_temperature;BME280_humidity;BME280_pressure;Samples;Min_cycle;Max_cycle;Signal;HPM_P1;HPM_P2
2021/12/21 08:38:56;;;;;;;24.23;4.17;;;-0.60;99.90;;;;;;3147683;23;20357;-70
2021/12/21 08:41:23;;;;;;;9.27;3.57;;;-0.50;99.90;;;;;;4896971;29;20238;-69
2021/12/21 08:43:52;;;;;;;16.43;4.83;;;-0.40;99.90;;;;;;4898154;29;20214;-72
2021/12/21 08:46:19;;;;;;;9.97;5.37;;;-0.50;99.90;;;;;;4893206;29;20287;-73
2021/12/21 08:48:46;;;;;;;8.67;4.53;;;-0.40;99.90;;;;;;4883475;29;20202;-71
2021/12/21 08:51:14;;;;;;;14.47;4.53;;;-0.40;99.90;;;;;;4889896;29;20207;-74
2021/12/21 08:53:42;;;;;;;13.97;5.60;;;-0.30;99.90;;;;;;4897833;29;20199;-71
2021/12/21 08:56:11;;;;;;;18.57;5.33;;;-0.20;99.90;;;;;;4888764;29;20274;-75
2021/12/21 08:58:38;;;;;;;15.33;5.03;;;-0.10;99.90;;;;;;4889098;29;20210;-72
2021/12/21 09:01:05;;;;;;;26.80;4.90;;;-0.10;99.90;;;;;;4880201;29;20211;-74
2021/12/21 09:03:33;;;;;;;16.20;4.73;;;-0.10;99.90;;;;;;4897381;29;20210;-72
2021/12/21 09:06:00;;;;;;;10.77;4.13;;;-0.10;99.90;;;;;;4893344;29;20226;-74
2021/12/21 09:08:27;;;;;;;13.43;4.13;;;-0.10;99.90;;;;;;4887543;29;20202;-73
2021/12/21 09:10:54;;;;;;;16.93;4.77;;;-0.10;99.90;;;;;;4894144;29;20233;-72
2021/12/21 09:13:22;;;;;;;18.33;4.67;;;-0.10;99.90;;;;;;4895870;29;20213;-70
2021/12/21 09:15:49;;;;;;;10.03;4.03;;;0.00;99.90;;;;;;4894625;29;20570;-70
2021/12/21 09:18:16;;;;;;;15.33;4.83;;;0.10;99.90;;;;;;4891484;29;20630;-72
2021/12/21 09:20:43;;;;;;;11.30;4.97;;;0.10;99.90;;;;;;4897769;29;20212;-71
2021/12/21 09:23:10;;;;;;;13.97;4.87;;;0.10;99.90;;;;;;4893979;29;20234;-76
2021/12/21 09:25:36;;;;;;;13.87;5.27;;;0.20;99.90;;;;;;4896865;29;20206;-70
2021/12/21 09:28:04;;;;;;;11.03;5.23;;;0.30;99.90;;;;;;4894344;29;20217;-71
2021/12/21 09:30:32;;;;;;;17.53;5.47;;;0.30;99.90;;;;;;4896161;29;20207;-71
2021/12/21 09:33:00;;;;;;;12.40;4.63;;;0.40;99.90;;;;;;4896019;29;20210;-76
2021/12/21 09:35:27;;;;;;;11.87;5.00;;;0.50;99.90;;;;;;4897085;29;20297;-77
2021/12/21 09:37:55;;;;;;;15.87;4.40;;;0.40;99.90;;;;;;4896845;29;20214;-76
2021/12/21 09:40:23;;;;;;;10.13;5.00;;;0.40;99.90;;;;;;4896737;29;20218;-77
2021/12/21 09:42:51;;;;;;;14.73;4.90;;;0.40;99.90;;;;;;4896456;29;20238;-75
2021/12/21 09:45:19;;;;;;;10.67;5.27;;;0.50;99.90;;;;;;4896140;29;20229;-74
2021/12/21 09:47:49;;;;;;;10.67;5.60;;;0.60;99.90;;;;;;4896588;29;20206;-74
2021/12/21 09:50:17;;;;;;;14.37;5.67;;;0.50;99.90;;;;;;4896653;29;20685;-71
2021/12/21 09:52:44;;;;;;;18.33;5.83;;;0.60;99.90;;;;;;4896690;29;20211;-72
2021/12/21 09:55:14;;;;;;;11.30;4.90;;;0.70;99.90;;;;;;4896494;29;20662;-70
2021/12/21 09:57:42;;;;;;;9.57;4.90;;;0.90;99.90;;;;;;4896238;29;20231;-72
2021/12/21 10:00:12;;;;;;;13.37;5.00;;;1.00;99.90;;;;;;4896183;29;20213;-74
2021/12/21 10:02:39;;;;;;;11.60;4.30;;;1.00;99.90;;;;;;4896754;29;20241;-74
2021/12/21 10:05:10;;;;;;;11.73;5.10;;;0.90;99.90;;;;;;4896660;29;20217;-69
2021/12/21 10:07:37;;;;;;;9.83;4.10;;;0.90;99.90;;;;;;4896049;29;20227;-72
2021/12/21 10:10:11;;;;;;;15.87;5.07;;;0.90;99.90;;;;;;4896482;29;20210;-75
2021/12/21 10:12:40;;;;;;;10.60;4.17;;;1.00;99.90;;;;;;4896408;29;20222;-71
2021/12/21 10:15:10;;;;;;;10.43;4.50;;;1.10;99.90;;;;;;4896360;29;20213;-75
2021/12/21 10:17:38;;;;;;;7.77;4.30;;;1.10;99.90;;;;;;4896439;29;20322;-75
2021/12/21 10:20:08;;;;;;;12.47;4.90;;;1.30;99.90;;;;;;4896859;29;20215;-74
2021/12/21 10:22:37;;;;;;;15.60;5.77;;;1.20;99.90;;;;;;4887354;29;20737;-74
2021/12/21 10:25:08;;;;;;;7.50;4.27;;;1.20;99.90;;;;;;4880839;29;20671;-75
2021/12/21 10:27:43;;;;;;;15.03;4.40;;;1.20;99.90;;;;;;4885317;29;20230;-73
2021/12/21 10:30:11;;;;;;;7.10;4.10;;;1.20;99.90;;;;;;4899957;29;20210;-74
2021/12/21 10:32:38;;;;;;;7.33;3.67;;;1.00;99.90;;;;;;4900440;29;20210;-74
2021/12/21 10:35:10;;;;;;;7.80;3.80;;;1.00;99.90;;;;;;4899264;29;20616;-74
2021/12/21 10:37:39;;;;;;;8.23;4.40;;;1.10;99.90;;;;;;4899604;29;20238;-75
2021/12/21 10:40:16;;;;;;;7.80;3.83;;;1.20;99.90;;;;;;4899683;29;20222;-74
2021/12/21 10:42:52;;;;;;;9.20;3.57;;;1.30;99.90;;;;;;4899457;29;20234;-74
2021/12/21 10:45:24;;;;;;;8.67;4.40;;;1.50;99.90;;;;;;4899584;29;20214;-75
2021/12/21 10:47:52;;;;;;;7.37;3.83;;;1.50;99.90;;;;;;4899223;29;20677;-74
2021/12/21 10:50:20;;;;;;;8.40;4.10;;;1.50;99.90;;;;;;4899455;29;20206;-75
2021/12/21 10:52:52;;;;;;;7.37;3.67;;;1.50;99.90;;;;;;4891529;29;20219;-74
2021/12/21 10:55:27;;;;;;;8.40;4.27;;;1.50;99.90;;;;;;4880576;29;20212;-74
2021/12/21 10:58:06;;;;;;;17.57;3.70;;;1.40;99.90;;;;;;4886577;29;20248;-73
2021/12/21 11:00:34;;;;;;;6.00;3.10;;;1.40;99.90;;;;;;4898123;29;20688;-74
2021/12/21 11:03:00;;;;;;;7.90;2.80;;;1.40;99.90;;;;;;4897925;29;20226;-73
2021/12/21 11:05:29;;;;;;;8.67;3.13;;;1.40;99.90;;;;;;4897867;29;20640;-74
2021/12/21 11:08:01;;;;;;;5.97;2.73;;;1.50;99.90;;;;;;4898692;29;20301;-74
2021/12/21 11:10:32;;;;;;;8.20;3.77;;;1.50;99.90;;;;;;4898009;29;20206;-75
2021/12/21 11:13:01;;;;;;;7.00;3.30;;;1.70;99.90;;;;;;4903975;29;20289;-75
2021/12/21 11:15:30;;;;;;;9.00;2.90;;;1.70;99.90;;;;;;4899428;29;20570;-76
2021/12/21 11:17:57;;;;;;;9.63;2.80;;;1.80;99.90;;;;;;4899141;29;20211;-76
2021/12/21 11:20:25;;;;;;;6.53;3.17;;;1.90;99.90;;;;;;4898908;29;20662;-74
2021/12/21 11:22:54;;;;;;;12.40;3.40;;;1.90;99.90;;;;;;4894335;29;20242;-73
2021/12/21 11:25:22;;;;;;;10.30;3.10;;;1.90;99.90;;;;;;4898965;29;20270;-76
2021/12/21 11:27:51;;;;;;;5.03;2.43;;;1.90;99.90;;;;;;4898747;29;20221;-74
2021/12/21 11:30:21;;;;;;;7.17;2.70;;;1.90;99.90;;;;;;4898456;29;20207;-75
2021/12/21 11:32:50;;;;;;;6.93;2.90;;;1.80;99.90;;;;;;4899354;29;20214;-76
2021/12/21 11:38:06;;;;;;;6.30;2.93;;;1.90;99.90;;;;;;4897441;29;20875;-71
2021/12/21 11:40:36;;;;;;;7.30;2.37;;;2.00;99.90;;;;;;4895440;29;20221;-76
2021/12/21 11:43:24;;;;;;;10.40;3.50;;;2.00;99.90;;;;;;4892309;29;20227;-74
2021/12/21 11:45:55;;;;;;;7.20;3.10;;;2.00;99.90;;;;;;4893451;29;20581;-76
2021/12/21 11:48:31;;;;;;;9.10;2.97;;;1.90;99.90;;;;;;4892094;29;20203;-71
2021/12/21 11:51:03;;;;;;;13.70;3.97;;;2.00;99.90;;;;;;4888714;29;20206;-74
2021/12/21 11:53:31;;;;;;;5.53;3.33;;;2.20;99.90;;;;;;4898033;29;20567;-75
2021/12/21 11:55:58;;;;;;;9.93;3.13;;;2.10;99.90;;;;;;4897251;29;20226;-77
2021/12/21 11:58:27;;;;;;;6.00;3.20;;;2.10;99.90;;;;;;4898117;29;20884;-77
2021/12/21 12:01:00;;;;;;;4.30;2.87;;;2.20;99.90;;;;;;4898372;29;20240;-77
2021/12/21 12:03:29;;;;;;;7.70;3.30;;;2.20;99.90;;;;;;4898492;29;20238;-80
2021/12/21 12:05:59;;;;;;;9.57;3.30;;;2.20;99.90;;;;;;4898244;29;20246;-74
2021/12/21 12:08:28;;;;;;;7.03;3.40;;;2.20;99.90;;;;;;4890373;29;20682;-72
2021/12/21 12:10:59;;;;;;;6.13;2.77;;;2.30;99.90;;;;;;4898466;29;20232;-75
2021/12/21 12:13:32;;;;;;;10.57;4.30;;;2.50;99.90;;;;;;4898118;29;20214;-74
2021/12/21 12:16:01;;;;;;;6.03;3.40;;;2.50;99.90;;;;;;4897574;29;20226;-73
2021/12/21 12:18:33;;;;;;;7.77;3.70;;;2.60;99.90;;;;;;4897744;29;20210;-72
2021/12/21 12:21:15;;;;;;;8.57;3.90;;;2.70;99.90;;;;;;4897719;29;20717;-79
2021/12/21 12:23:51;;;;;;;9.07;3.20;;;2.80;99.90;;;;;;4898108;29;20324;-76
2021/12/21 12:26:26;;;;;;;8.33;3.37;;;2.80;99.90;;;;;;4897355;29;20236;-75
2021/12/21 12:28:57;;;;;;;16.10;3.50;;;2.90;99.90;;;;;;4897386;29;20214;-76
2021/12/21 12:31:33;;;;;;;5.57;3.37;;;2.90;99.90;;;;;;4896956;29;20213;-73
2021/12/21 12:34:00;;;;;;;7.97;3.43;;;2.90;99.90;;;;;;4896452;29;20597;-74
2021/12/21 12:36:36;;;;;;;9.07;4.07;;;2.80;99.90;;;;;;4897308;29;20697;-72
2021/12/21 12:39:03;;;;;;;13.13;4.13;;;2.80;99.90;;;;;;4897220;29;20300;-76
2021/12/21 12:41:43;;;;;;;11.03;4.20;;;2.70;99.90;;;;;;4897176;29;20218;-76
2021/12/21 12:44:20;;;;;;;10.00;3.50;;;2.70;99.90;;;;;;4896549;29;20253;-78
2021/12/21 12:46:53;;;;;;;8.57;2.90;;;2.80;99.90;;;;;;4896323;29;20230;-73
2021/12/21 12:49:23;;;;;;;5.13;3.37;;;2.90;99.90;;;;;;4896465;29;20672;-75
2021/12/21 12:51:50;;;;;;;11.13;4.07;;;2.90;99.90;;;;;;4897160;29;20274;-78
2021/12/21 12:54:21;;;;;;;7.17;3.60;;;3.00;99.90;;;;;;4897585;29;20221;-76
2021/12/21 12:56:50;;;;;;;10.37;3.50;;;3.00;99.90;;;;;;4897286;29;20278;-76
2021/12/21 12:59:17;;;;;;;8.60;3.37;;;2.90;99.90;;;;;;4896720;29;20234;-74
2021/12/21 13:01:46;;;;;;;7.30;3.40;;;3.00;99.90;;;;;;4896840;29;20217;-72
2021/12/21 13:04:15;;;;;;;8.50;3.67;;;3.10;99.90;;;;;;4897286;29;20269;-73
2021/12/21 13:06:46;;;;;;;5.77;2.90;;;3.30;99.90;;;;;;4896830;29;20237;-73
2021/12/21 13:09:15;;;;;;;9.10;3.33;;;3.30;99.90;;;;;;4893766;29;20218;-76
2021/12/21 13:11:42;;;;;;;8.50;3.87;;;3.40;99.90;;;;;;4896236;29;20202;-74
2021/12/21 13:14:12;;;;;;;11.83;3.60;;;3.50;99.90;;;;;;4896275;29;20207;-76
2021/12/21 13:16:40;;;;;;;6.57;3.53;;;3.60;99.90;;;;;;4891009;29;22810;-75
2021/12/21 13:19:08;;;;;;;7.27;4.23;;;3.50;99.90;;;;;;4896632;29;20208;-73
2021/12/21 13:21:37;;;;;;;9.37;3.90;;;3.50;99.90;;;;;;4896456;29;20232;-73
2021/12/21 13:24:06;;;;;;;12.30;3.73;;;3.60;99.90;;;;;;4895684;29;20238;-75
2021/12/21 13:26:35;;;;;;;9.70;3.20;;;3.70;99.90;;;;;;4896345;29;20317;-75
2021/12/21 13:29:03;;;;;;;4.40;2.83;;;3.60;99.90;;;;;;4895630;29;20199;-77
2021/12/21 13:31:32;;;;;;;5.93;2.77;;;3.70;99.90;;;;;;4896501;29;20745;-75
2021/12/21 13:34:01;;;;;;;7.50;3.00;;;3.80;99.90;;;;;;4896520;29;20214;-75
2021/12/21 13:36:33;;;;;;;8.07;2.70;;;3.90;99.90;;;;;;4896485;29;20235;-72
2021/12/21 13:39:00;;;;;;;4.70;2.60;;;3.90;99.90;;;;;;4881930;29;20362;-75
2021/12/21 13:41:27;;;;;;;6.43;2.47;;;3.90;99.90;;;;;;4896216;29;20567;-75
2021/12/21 13:43:56;;;;;;;5.27;2.60;;;3.70;99.90;;;;;;4895391;29;20234;-76
2021/12/21 13:46:23;;;;;;;4.53;2.30;;;3.70;99.90;;;;;;4895763;29;20253;-74
2021/12/21 13:48:53;;;;;;;4.70;2.20;;;3.70;99.90;;;;;;4896265;29;20202;-77
2021/12/21 13:51:21;;;;;;;4.50;2.07;;;3.80;99.90;;;;;;4895187;29;20219;-77
2021/12/21 13:53:50;;;;;;;4.83;2.53;;;3.90;99.90;;;;;;4893385;29;20725;-75
2021/12/21 13:56:20;;;;;;;8.87;2.37;;;4.10;99.90;;;;;;4891297;29;20227;-76
2021/12/21 13:58:48;;;;;;;5.03;2.40;;;4.20;99.90;;;;;;4886946;29;20213;-75
2021/12/21 14:01:20;;;;;;;4.57;2.23;;;4.10;99.90;;;;;;4900344;29;20217;-76
2021/12/21 14:03:55;;;;;;;7.50;3.30;;;3.90;99.90;;;;;;4885750;29;20328;-77
2021/12/21 14:06:23;;;;;;;6.23;2.90;;;3.80;99.90;;;;;;4881413;29;20234;-72
2021/12/21 14:08:51;;;;;;;3.90;2.30;;;3.80;99.90;;;;;;4896356;29;20212;-72
2021/12/21 14:11:19;;;;;;;3.47;1.87;;;3.90;99.90;;;;;;4899892;29;20569;-76
2021/12/21 14:13:47;;;;;;;4.47;2.23;;;3.70;99.90;;;;;;4900339;29;20206;-73
2021/12/21 14:16:17;;;;;;;5.63;2.30;;;3.60;99.90;;;;;;4899565;29;20735;-72
2021/12/21 14:18:47;;;;;;;3.83;1.70;;;3.50;99.90;;;;;;4900515;29;20267;-75
2021/12/21 14:21:17;;;;;;;2.33;1.63;;;3.60;99.90;;;;;;4900107;29;20301;-75
2021/12/21 14:23:46;;;;;;;4.23;1.83;;;3.60;99.90;;;;;;4900292;29;20667;-75
2021/12/21 14:26:16;;;;;;;4.33;2.00;;;3.50;99.90;;;;;;4894328;29;20252;-75
2021/12/21 14:28:52;;;;;;;6.20;2.17;;;3.50;99.90;;;;;;4899580;29;20210;-75
2021/12/21 14:31:23;;;;;;;3.70;2.20;;;3.40;99.90;;;;;;4899827;29;20639;-74
2021/12/21 14:33:54;;;;;;;4.20;1.83;;;3.40;99.90;;;;;;4900012;29;20210;-76
2021/12/21 14:36:24;;;;;;;3.53;1.90;;;3.40;99.90;;;;;;4899605;29;20319;-76
2021/12/21 14:38:57;;;;;;;4.17;1.80;;;3.30;99.90;;;;;;4899690;29;20582;-75
2021/12/21 14:41:26;;;;;;;5.20;2.07;;;3.40;99.90;;;;;;4899546;29;20206;-75
2021/12/21 14:44:02;;;;;;;4.67;2.33;;;3.30;99.90;;;;;;4895187;29;20234;-73
2021/12/21 20:44:37;;;;;;;12.30;7.10;;;-0.60;99.90;;;;;;5942408;23;20327;-73
2021/12/21 20:47:04;;;;;;;21.53;7.67;;;-0.60;99.90;;;;;;4876142;29;20239;-73
2021/12/21 20:49:31;;;;;;;13.40;5.80;;;-0.60;99.90;;;;;;4874559;29;20211;-73
2021/12/21 20:51:58;;;;;;;14.63;7.10;;;-0.70;99.90;;;;;;4875856;29;20214;-74
2021/12/21 20:54:25;;;;;;;14.63;7.13;;;-0.70;99.90;;;;;;4869681;29;20219;-74
2021/12/21 20:56:52;;;;;;;18.07;8.73;;;-0.70;99.90;;;;;;4868566;29;20604;-74
2021/12/21 20:59:18;;;;;;;15.03;7.77;;;-0.60;99.90;;;;;;4875183;29;20212;-74
2021/12/21 21:01:46;;;;;;;19.90;8.40;;;-0.60;99.90;;;;;;4870930;29;20687;-74
2021/12/21 21:04:15;;;;;;;21.03;7.97;;;-0.70;99.90;;;;;;4875074;29;20231;-74
2021/12/21 21:06:42;;;;;;;20.40;7.53;;;-0.70;99.90;;;;;;4870854;29;20322;-73
2021/12/21 21:09:10;;;;;;;22.50;8.27;;;-0.80;99.90;;;;;;4868813;29;20671;-73
2021/12/21 21:11:36;;;;;;;18.40;8.27;;;-0.80;99.90;;;;;;4867872;29;20250;-74
2021/12/21 21:14:03;;;;;;;25.57;8.43;;;-0.70;99.90;;;;;;4865764;29;20220;-74
2021/12/21 21:16:31;;;;;;;13.13;7.80;;;-0.80;99.90;;;;;;4867726;29;20227;-74
2021/12/21 21:19:00;;;;;;;15.73;7.37;;;-0.80;99.90;;;;;;4869946;29;20693;-74
2021/12/21 21:21:26;;;;;;;21.40;9.00;;;-0.90;99.90;;;;;;4864317;29;20309;-74
2021/12/21 21:23:53;;;;;;;18.50;7.83;;;-0.90;99.90;;;;;;4870039;29;20239;-73
2021/12/21 21:26:22;;;;;;;15.97;7.67;;;-0.90;99.90;;;;;;4867541;29;20246;-74
2021/12/21 21:28:50;;;;;;;15.60;7.13;;;-0.90;99.90;;;;;;4867849;29;20226;-74
2021/12/21 21:31:17;;;;;;;18.10;8.47;;;-1.00;99.90;;;;;;4862703;29;20204;-74
2021/12/21 21:33:44;;;;;;;11.33;6.27;;;-1.00;99.90;;;;;;4868992;29;20226;-73
2021/12/21 21:36:12;;;;;;;15.53;6.53;;;-0.90;99.90;;;;;;4867835;29;20242;-74
2021/12/21 21:38:39;;;;;;;19.10;7.43;;;-0.90;99.90;;;;;;4865814;29;20218;-73
2021/12/21 21:41:07;;;;;;;13.40;7.37;;;-1.00;99.90;;;;;;4870957;29;20211;-74
2021/12/21 21:43:34;;;;;;;12.07;6.87;;;-1.00;99.90;;;;;;4870362;29;20551;-74
2021/12/21 21:46:01;;;;;;;13.93;7.20;;;-1.00;99.90;;;;;;4870757;29;20242;-73
2021/12/21 21:48:31;;;;;;;20.60;6.87;;;-1.00;99.90;;;;;;4865238;29;20227;-74
2021/12/21 21:50:59;;;;;;;14.63;6.20;;;-1.00;99.90;;;;;;4865846;29;20210;-73
2021/12/21 21:53:43;;;;;;;16.17;6.33;;;-1.00;99.90;;;;;;4872619;29;20210;-74
2021/12/21 21:56:12;;;;;;;13.30;7.47;;;-1.00;99.90;;;;;;4863131;29;20650;-74
2021/12/21 21:58:42;;;;;;;11.67;6.57;;;-1.10;99.90;;;;;;4865984;29;20208;-74
2021/12/21 22:01:09;;;;;;;13.33;6.10;;;-1.10;99.90;;;;;;4872946;29;20207;-74
2021/12/21 22:03:36;;;;;;;9.90;6.33;;;-1.10;99.90;;;;;;4871975;29;20215;-74
2021/12/21 22:06:03;;;;;;;10.80;6.67;;;-1.10;99.90;;;;;;4866876;29;20238;-74
2021/12/21 22:08:31;;;;;;;7.30;4.70;;;-1.10;99.90;;;;;;4869039;29;20222;-73
2021/12/21 22:10:58;;;;;;;18.40;7.93;;;-1.20;99.90;;;;;;4868011;29;20648;-73
2021/12/21 22:13:29;;;;;;;15.30;7.00;;;-1.10;99.90;;;;;;4866305;29;20216;-73
2021/12/21 22:15:56;;;;;;;12.43;6.20;;;-1.10;99.90;;;;;;4868073;29;20595;-74
2021/12/21 22:18:23;;;;;;;14.43;6.67;;;-1.10;99.90;;;;;;4873964;29;20222;-74
2021/12/21 22:20:50;;;;;;;17.77;7.20;;;-1.20;99.90;;;;;;4879487;29;20596;-74
2021/12/21 22:23:16;;;;;;;13.27;6.17;;;-1.30;99.90;;;;;;4873345;29;20204;-73
2021/12/21 22:25:45;;;;;;;11.40;5.97;;;-1.30;99.90;;;;;;4871471;29;20243;-74
2021/12/21 22:28:12;;;;;;;12.03;6.33;;;-1.30;99.90;;;;;;4874195;29;20227;-74
2021/12/21 22:30:38;;;;;;;13.27;6.83;;;-1.30;99.90;;;;;;4873276;29;20223;-74
2021/12/21 22:33:07;;;;;;;13.63;6.10;;;-1.40;99.90;;;;;;4874045;29;20218;-74
2021/12/21 22:35:34;;;;;;;15.30;7.00;;;-1.40;99.90;;;;;;4875985;29;20220;-73
2021/12/21 22:38:01;;;;;;;17.60;7.47;;;-1.40;99.90;;;;;;4874489;29;20677;-74
2021/12/21 22:40:28;;;;;;;20.70;7.07;;;-1.40;99.90;;;;;;4869024;29;20219;-73
2021/12/21 22:42:56;;;;;;;11.47;6.13;;;-1.30;99.90;;;;;;4874625;29;20250;-74
2021/12/21 22:45:22;;;;;;;14.53;6.63;;;-1.30;99.90;;;;;;4871889;29;20591;-73
2021/12/21 22:47:49;;;;;;;11.00;6.33;;;-1.30;99.90;;;;;;4874247;29;20545;-74
2021/12/21 22:50:16;;;;;;;13.57;7.17;;;-1.30;99.90;;;;;;4868482;29;20208;-74
2021/12/21 22:52:43;;;;;;;19.17;7.20;;;-1.40;99.90;;;;;;4871003;29;20223;-73
2021/12/21 22:55:10;;;;;;;16.97;8.00;;;-1.40;99.90;;;;;;4872371;29;20224;-74
2021/12/21 22:57:37;;;;;;;10.13;5.70;;;-1.50;99.90;;;;;;4878408;29;20310;-74
2021/12/21 23:00:10;;;;;;;14.80;7.50;;;-1.10;99.90;;;;;;4866887;29;20216;-74
2021/12/21 23:02:37;;;;;;;13.23;6.27;;;-1.10;99.90;;;;;;4864888;29;20212;-73
2021/12/21 23:05:04;;;;;;;13.37;7.37;;;-1.20;99.90;;;;;;4868722;29;20594;-74
2021/12/21 23:07:31;;;;;;;10.10;6.00;;;-1.40;99.90;;;;;;4871147;29;20265;-73
2021/12/21 23:09:58;;;;;;;20.73;7.30;;;-1.40;99.90;;;;;;4870109;29;20797;-73
2021/12/21 23:12:25;;;;;;;15.30;6.57;;;-1.40;99.90;;;;;;4875542;29;20211;-74
2021/12/21 23:14:54;;;;;;;15.70;6.80;;;-1.40;99.90;;;;;;4869583;29;20230;-82
